Time;durP1;ratioP1;P1;durP2;ratioP2;P2;SDS_P1;SDS_P2;PMS_P1;PMS_P2;Temp;Humidity;BMP_temperature;BMP_pressure;BME280_temperature;BME280_humidity;BME280_pressure;Samples;Min_cycle;Max_cycle;Signal;HPM_P1;HPM_P2
2022/11/15 00:00:09;;;;;;;;;;;;;;;;;;5005207;28;19914;-75
2022/11/15 00:02:35;;;;;;;;;;;;;;;;;;5007470;28;20004;-75
2022/11/15 00:05:01;;;;;;;;;;;;;;;;;;5003922;28;20008;-75
2022/11/15 00:07:27;;;;;;;;;;;;;;;;;;5002207;28;19924;-75
2022/11/15 00:09:53;;;;;;;;;;;;;;;;;;5007610;28;19924;-75
2022/11/15 00:12:18;;;;;;;;;;;;;;;;;;5005405;28;19913;-75
2022/11/15 00:14:44;;;;;;;;;;;;;;;;;;4997922;28;19913;-75
2022/11/15 00:17:10;;;;;;;;;;;;;;;;;;5005680;28;19920;-75
2022/11/15 00:19:36;;;;;;;;;;;;;;;;;;5000682;28;19920;-75
2022/11/15 00:22:02;;;;;;;;;;;;;;;;;;5008594;28;19918;-75
2022/11/15 00:24:28;;;;;;;;;;;;;;;;;;5007570;28;19917;-74
2022/11/15 00:26:53;;;;;;;;;;;;;;;;;;5006243;28;19917;-74
2022/11/15 00:29:19;;;;;;;;;;;;;;;;;;5003760;28;19913;-74
2022/11/15 00:31:45;;;;;;;;;;;;;;;;;;5011170;28;19944;-74
2022/11/15 00:34:11;;;;;;;;;;;;;;;;;;5003977;28;19921;-74
2022/11/15 00:36:37;;;;;;;;;;;;;;;;;;5005104;28;20390;-74
2022/11/15 00:39:03;;;;;;;;;;;;;;;;;;5002029;28;20406;-75
2022/11/15 00:41:28;;;;;;;;;;;;;;;;;;5005316;28;19913;-74
2022/11/15 00:43:54;;;;;;;;;;;;;;;;;;5007592;28;20008;-74
2022/11/15 00:46:20;;;;;;;;;;;;;;;;;;5006481;28;19917;-75
2022/11/15 00:48:46;;;;;;;;;;;;;;;;;;5001656;28;19918;-74
2022/11/15 00:51:12;;;;;;;;;;;;;;;;;;5005177;28;20463;-74
2022/11/15 00:53:38;;;;;;;;;;;;;;;;;;5007056;28;19944;-74
2022/11/15 00:56:04;;;;;;;;;;;;;;;;;;5006186;28;19920;-74
2022/11/15 00:58:29;;;;;;;;;;;;;;;;;;5002372;28;19921;-74
2022/11/15 01:00:55;;;;;;;;;;;;;;;;;;4999497;28;20024;-74
2022/11/15 01:03:21;;;;;;;;;;;;;;;;;;5005029;28;19921;-74
2022/11/15 01:05:47;;;;;;;;;;;;;;;;;;5003551;28;19914;-74
2022/11/15 01:08:13;;;;;;;;;;;;;;;;;;5008861;28;19979;-74
2022/11/15 01:10:39;;;;;;;;;;;;;;;;;;5006186;28;19940;-73
2022/11/15 01:13:05;;;;;;;;;;;;;;;;;;5004839;28;20443;-74
2022/11/15 01:15:30;;;;;;;;;;;;;;;;;;5009031;28;19964;-74
2022/11/15 01:17:56;;;;;;;;;;;;;;;;;;5013021;28;20093;-74
2022/11/15 01:20:22;;;;;;;;;;;;;;;;;;5006285;28;19961;-74
2022/11/15 01:22:48;;;;;;;;;;;;;;;;;;5006252;28;19917;-74
2022/11/15 01:25:14;;;;;;;;;;;;;;;;;;5008942;28;19971;-74
2022/11/15 01:27:40;;;;;;;;;;;;;;;;;;5006130;28;20020;-74
2022/11/15 01:30:05;;;;;;;;;;;;;;;;;;5008779;28;20435;-75
2022/11/15 01:32:34;;;;;;;;;;;;;;;;;;5005407;28;19924;-74
2022/11/15 01:35:00;;;;;;;;;;;;;;;;;;5008837;28;19928;-75
2022/11/15 01:37:26;;;;;;;;;;;;;;;;;;5008681;28;19918;-75
2022/11/15 01:39:52;;;;;;;;;;;;;;;;;;5010769;28;19913;-75
2022/11/15 01:42:18;;;;;;;;;;;;;;;;;;5002217;28;19917;-75
2022/11/15 01:44:43;;;;;;;;;;;;;;;;;;5007862;28;20275;-75
2022/11/15 01:47:09;;;;;;;;;;;;;;;;;;5008647;28;19991;-75
2022/11/15 01:49:35;;;;;;;;;;;;;;;;;;5006051;28;20007;-75
2022/11/15 01:52:01;;;;;;;;;;;;;;;;;;5009768;28;19914;-74
2022/11/15 01:54:27;;;;;;;;;;;;;;;;;;5003906;28;19959;-74
2022/11/15 01:56:53;;;;;;;;;;;;;;;;;;5010380;28;19928;-75
2022/11/15 01:59:19;;;;;;;;;;;;;;;;;;5016693;28;19976;-75
2022/11/15 02:01:44;;;;;;;;;;;;;;;;;;5005109;28;19917;-74
2022/11/15 02:04:10;;;;;;;;;;;;;;;;;;5002896;28;19918;-75
2022/11/15 02:06:36;;;;;;;;;;;;;;;;;;5005880;28;19913;-75
2022/11/15 02:09:02;;;;;;;;;;;;;;;;;;5008260;28;19917;-75
2022/11/15 02:11:28;;;;;;;;;;;;;;;;;;5012656;28;19917;-75
2022/11/15 02:13:54;;;;;;;;;;;;;;;;;;5004669;28;19913;-75
2022/11/15 02:16:19;;;;;;;;;;;;;;;;;;5005165;28;19999;-75
2022/11/15 02:18:45;;;;;;;;;;;;;;;;;;5000950;28;19914;-74
2022/11/15 02:21:11;;;;;;;;;;;;;;;;;;5009391;28;19924;-75
2022/11/15 02:23:37;;;;;;;;;;;;;;;;;;5001486;28;20000;-75
2022/11/15 02:26:03;;;;;;;;;;;;;;;;;;5000967;28;19944;-74
2022/11/15 02:28:29;;;;;;;;;;;;;;;;;;5019706;28;20016;-75
2022/11/15 02:30:54;;;;;;;;;;;;;;;;;;5010852;28;19922;-74
2022/11/15 02:33:20;;;;;;;;;;;;;;;;;;5005847;28;19917;-75
2022/11/15 02:35:46;;;;;;;;;;;;;;;;;;5005479;28;20395;-74
2022/11/15 02:38:12;;;;;;;;;;;;;;;;;;5009132;28;19917;-74
2022/11/15 02:40:38;;;;;;;;;;;;;;;;;;5007659;28;19924;-75
2022/11/15 02:45:48;;;;;;;;;;;;;;;;;;5009979;28;20334;-73
2022/11/15 02:48:14;;;;;;;;;;;;;;;;;;5007590;28;19921;-74
2022/11/15 02:50:40;;;;;;;;;;;;;;;;;;5005314;28;19913;-74
2022/11/15 02:53:06;;;;;;;;;;;;;;;;;;5007229;28;19956;-74
2022/11/15 02:55:32;;;;;;;;;;;;;;;;;;5006815;28;19940;-74
2022/11/15 02:57:58;;;;;;;;;;;;;;;;;;5006018;28;19944;-74
2022/11/15 03:00:23;;;;;;;;;;;;;;;;;;5009690;28;19918;-74
2022/11/15 03:02:49;;;;;;;;;;;;;;;;;;5015060;28;19917;-75
2022/11/15 03:05:15;;;;;;;;;;;;;;;;;;5008794;28;20415;-75
2022/11/15 03:07:41;;;;;;;;;;;;;;;;;;5005960;28;20379;-75
2022/11/15 03:10:07;;;;;;;;;;;;;;;;;;5008286;28;20480;-74
2022/11/15 03:12:33;;;;;;;;;;;;;;;;;;5008027;28;20155;-74
2022/11/15 03:14:58;;;;;;;;;;;;;;;;;;5006918;28;19918;-74
2022/11/15 03:17:24;;;;;;;;;;;;;;;;;;5007322;28;19923;-74
2022/11/15 03:19:50;;;;;;;;;;;;;;;;;;5012437;28;19925;-74
2022/11/15 03:22:16;;;;;;;;;;;;;;;;;;5005287;28;19960;-74
2022/11/15 03:24:42;;;;;;;;;;;;;;;;;;5001208;28;19920;-74
2022/11/15 03:27:08;;;;;;;;;;;;;;;;;;5004274;28;19928;-74
2022/11/15 03:29:33;;;;;;;;;;;;;;;;;;5014648;28;20007;-73
2022/11/15 03:31:59;;;;;;;;;;;;;;;;;;5005865;28;19926;-73
2022/11/15 03:34:25;;;;;;;;;;;;;;;;;;5007696;28;20396;-74
2022/11/15 03:36:52;;;;;;;;;;;;;;;;;;5005134;28;19928;-74
2022/11/15 03:39:17;;;;;;;;;;;;;;;;;;5003827;28;19921;-74
2022/11/15 03:41:43;;;;;;;;;;;;;;;;;;4999959;28;20379;-74
2022/11/15 03:44:09;;;;;;;;;;;;;;;;;;5001963;28;19913;-73
2022/11/15 03:46:35;;;;;;;;;;;;;;;;;;5002991;28;19914;-74
2022/11/15 03:49:01;;;;;;;;;;;;;;;;;;5002497;28;19925;-75
2022/11/15 03:51:27;;;;;;;;;;;;;;;;;;5001081;28;20292;-74
2022/11/15 03:53:52;;;;;;;;;;;;;;;;;;5004904;28;19929;-74
2022/11/15 03:56:18;;;;;;;;;;;;;;;;;;5008789;28;19922;-74
2022/11/15 03:58:44;;;;;;;;;;;;;;;;;;5000583;28;19920;-74
2022/11/15 04:01:10;;;;;;;;;;;;;;;;;;5007701;28;19996;-73
2022/11/15 04:03:36;;;;;;;;;;;;;;;;;;5005270;28;19921;-74
2022/11/15 04:06:02;;;;;;;;;;;;;;;;;;5004769;28;20379;-73
2022/11/15 04:08:27;;;;;;;;;;;;;;;;;;5002665;28;20391;-74
2022/11/15 04:10:53;;;;;;;;;;;;;;;;;;5006310;28;20382;-74
2022/11/15 04:13:19;;;;;;;;;;;;;;;;;;5007419;28;19917;-74
2022/11/15 04:15:45;;;;;;;;;;;;;;;;;;5002028;28;19922;-74
2022/11/15 04:18:11;;;;;;;;;;;;;;;;;;5003152;28;19918;-73
2022/11/15 04:26:06;;;;;;;;;;;;;;;;;;5005983;28;19920;-74
2022/11/15 04:28:32;;;;;;;;;;;;;;;;;;5004209;28;19961;-74
2022/11/15 04:30:58;;;;;;;;;;;;;;;;;;5002413;28;19964;-73
2022/11/15 04:33:24;;;;;;;;;;;;;;;;;;5006212;28;20734;-74
2022/11/15 04:38:35;;;;;;;;;;;;;;;;;;5004503;28;19968;-74
2022/11/15 04:41:00;;;;;;;;;;;;;;;;;;5005096;28;19913;-74
2022/11/15 04:43:26;;;;;;;;;;;;;;;;;;5010721;28;19925;-74
2022/11/15 04:45:52;;;;;;;;;;;;;;;;;;5004598;28;19920;-73
2022/11/15 04:48:18;;;;;;;;;;;;;;;;;;5005942;28;19968;-73
2022/11/15 04:50:44;;;;;;;;;;;;;;;;;;5004652;28;20399;-73
2022/11/15 04:53:10;;;;;;;;;;;;;;;;;;5004393;28;20040;-73
2022/11/15 04:55:36;;;;;;;;;;;;;;;;;;5004628;28;19917;-74
2022/11/15 04:58:01;;;;;;;;;;;;;;;;;;5007200;28;19921;-74
2022/11/15 05:00:27;;;;;;;;;;;;;;;;;;5006326;28;19914;-73
2022/11/15 05:05:38;;;;;;;;;;;;;;;;;;5004333;28;19920;-76
2022/11/15 05:08:04;;;;;;;;;;;;;;;;;;5005794;28;19917;-76
2022/11/15 05:10:30;;;;;;;;;;;;;;;;;;5002488;28;19925;-77
2022/11/15 05:12:55;;;;;;;;;;;;;;;;;;5007060;28;19936;-75
2022/11/15 05:15:21;;;;;;;;;;;;;;;;;;5003924;28;19921;-74
2022/11/15 05:17:47;;;;;;;;;;;;;;;;;;5007353;28;19917;-75
2022/11/15 05:20:13;;;;;;;;;;;;;;;;;;5006641;28;19941;-75
2022/11/15 05:22:39;;;;;;;;;;;;;;;;;;5012285;28;20547;-76
2022/11/15 05:25:05;;;;;;;;;;;;;;;;;;4999923;28;20388;-75
2022/11/15 05:27:30;;;;;;;;;;;;;;;;;;5004557;28;20313;-73
2022/11/15 05:29:56;;;;;;;;;;;;;;;;;;5005439;28;19913;-75
2022/11/15 05:32:22;;;;;;;;;;;;;;;;;;5006537;28;19918;-74
2022/11/15 05:34:48;;;;;;;;;;;;;;;;;;5003051;28;19971;-75
2022/11/15 05:37:14;;;;;;;;;;;;;;;;;;4999767;28;20004;-75
2022/11/15 05:39:40;;;;;;;;;;;;;;;;;;5000109;28;19917;-75
2022/11/15 05:42:06;;;;;;;;;;;;;;;;;;5002686;28;20452;-75
2022/11/15 05:44:32;;;;;;;;;;;;;;;;;;5003889;28;19918;-76
2022/11/15 05:46:57;;;;;;;;;;;;;;;;;;4992865;28;19965;-77
2022/11/15 05:49:23;;;;;;;;;;;;;;;;;;5001714;28;19921;-77
2022/11/15 05:51:49;;;;;;;;;;;;;;;;;;5005113;28;21235;-78
2022/11/15 05:54:15;;;;;;;;;;;;;;;;;;5006746;28;19920;-79
2022/11/15 05:56:41;;;;;;;;;;;;;;;;;;5005046;28;19983;-78
2022/11/15 05:59:07;;;;;;;;;;;;;;;;;;5007138;28;19921;-77
2022/11/15 06:01:32;;;;;;;;;;;;;;;;;;5004150;28;20012;-77
2022/11/15 06:03:58;;;;;;;;;;;;;;;;;;5008102;28;19963;-77
2022/11/15 06:06:24;;;;;;;;;;;;;;;;;;5003791;28;19913;-77
2022/11/15 06:08:50;;;;;;;;;;;;;;;;;;5002778;28;20008;-77
2022/11/15 06:11:16;;;;;;;;;;;;;;;;;;5003870;28;19914;-77
2022/11/15 06:13:42;;;;;;;;;;;;;;;;;;5010334;28;19913;-77
2022/11/15 06:16:08;;;;;;;;;;;;;;;;;;5005277;28;19929;-77
2022/11/15 06:18:33;;;;;;;;;;;;;;;;;;5003916;28;20008;-77
2022/11/15 06:21:00;;;;;;;;;;;;;;;;;;5007976;28;20386;-77
2022/11/15 06:23:25;;;;;;;;;;;;;;;;;;5000558;28;19918;-77
2022/11/15 06:25:51;;;;;;;;;;;;;;;;;;5006393;28;19919;-77
2022/11/15 06:28:17;;;;;;;;;;;;;;;;;;5000898;28;19923;-77
2022/11/15 06:30:43;;;;;;;;;;;;;;;;;;5030018;28;19967;-78
2022/11/15 06:33:09;;;;;;;;;;;;;;;;;;5005558;28;19921;-77
2022/11/15 06:35:35;;;;;;;;;;;;;;;;;;5006601;28;19914;-76
2022/11/15 06:38:01;;;;;;;;;;;;;;;;;;5011073;28;19909;-76
2022/11/15 06:40:26;;;;;;;;;;;;;;;;;;5010655;28;19920;-76
2022/11/15 06:42:52;;;;;;;;;;;;;;;;;;5009640;28;19941;-76
2022/11/15 06:45:18;;;;;;;;;;;;;;;;;;5006643;28;19917;-76
2022/11/15 06:47:44;;;;;;;;;;;;;;;;;;5002147;28;20035;-77
2022/11/15 06:50:10;;;;;;;;;;;;;;;;;;5009269;28;19956;-76
2022/11/15 06:52:36;;;;;;;;;;;;;;;;;;5008722;28;20008;-76
2022/11/15 06:55:02;;;;;;;;;;;;;;;;;;5004422;28;19913;-76
2022/11/15 06:57:27;;;;;;;;;;;;;;;;;;5006053;28;19924;-76
2022/11/15 06:59:53;;;;;;;;;;;;;;;;;;5008040;28;19987;-76
2022/11/15 07:02:19;;;;;;;;;;;;;;;;;;5005662;28;20446;-76
2022/11/15 07:04:45;;;;;;;;;;;;;;;;;;5005082;28;19986;-76
2022/11/15 07:07:11;;;;;;;;;;;;;;;;;;5007260;28;19913;-76
2022/11/15 07:09:37;;;;;;;;;;;;;;;;;;5008591;28;20023;-76
2022/11/15 07:12:02;;;;;;;;;;;;;;;;;;5009264;28;19917;-76
2022/11/15 07:14:28;;;;;;;;;;;;;;;;;;4999506;28;20302;-76
2022/11/15 07:16:54;;;;;;;;;;;;;;;;;;5007688;28;19913;-76
2022/11/15 07:19:20;;;;;;;;;;;;;;;;;;5009972;28;20103;-76
2022/11/15 07:21:46;;;;;;;;;;;;;;;;;;5008721;28;19909;-77
2022/11/15 07:24:12;;;;;;;;;;;;;;;;;;5003021;28;19914;-77
2022/11/15 07:26:38;;;;;;;;;;;;;;;;;;5007308;28;19917;-77
2022/11/15 07:29:04;;;;;;;;;;;;;;;;;;5006663;28;19925;-79
2022/11/15 07:31:29;;;;;;;;;;;;;;;;;;4998512;28;20008;-77
2022/11/15 07:33:55;;;;;;;;;;;;;;;;;;5002115;28;19960;-75
2022/11/15 07:36:21;;;;;;;;;;;;;;;;;;5006089;28;19909;-77
2022/11/15 07:38:50;;;;;;;;;;;;;;;;;;5006369;28;19920;-77
2022/11/15 07:41:16;;;;;;;;;;;;;;;;;;5005664;28;19984;-80
2022/11/15 07:43:42;;;;;;;;;;;;;;;;;;5002531;28;19917;-77
2022/11/15 07:46:09;;;;;;;;;;;;;;;;;;5011379;28;19956;-77
2022/11/15 07:48:34;;;;;;;;;;;;;;;;;;5001797;28;20057;-77
2022/11/15 07:51:00;;;;;;;;;;;;;;;;;;5013869;28;20602;-76
2022/11/15 07:53:26;;;;;;;;;;;;;;;;;;5006305;28;20269;-76
2022/11/15 07:55:53;;;;;;;;;;;;;;;;;;5008310;28;19945;-76
2022/11/15 07:58:19;;;;;;;;;;;;;;;;;;5004475;28;19921;-76
2022/11/15 08:00:45;;;;;;;;;;;;;;;;;;5003068;28;20029;-76
2022/11/15 08:03:10;;;;;;;;;;;;;;;;;;5011302;28;19918;-73
2022/11/15 08:05:36;;;;;;;;;;;;;;;;;;5004877;28;20000;-72
2022/11/15 08:08:02;;;;;;;;;;;;;;;;;;5005561;28;19917;-73
2022/11/15 08:10:28;;;;;;;;;;;;;;;;;;5008715;28;19918;-73
2022/11/15 08:12:54;;;;;;;;;;;;;;;;;;5003391;28;19913;-74
2022/11/15 08:15:20;;;;;;;;;;;;;;;;;;5002245;28;19917;-78
2022/11/15 08:17:45;;;;;;;;;;;;;;;;;;5000835;28;19921;-78
2022/11/15 08:20:11;;;;;;;;;;;;;;;;;;5005842;28;19920;-78
2022/11/15 08:22:37;;;;;;;;;;;;;;;;;;5006985;28;19924;-78
2022/11/15 08:25:03;;;;;;;;;;;;;;;;;;5002857;28;19921;-78
2022/11/15 08:27:32;;;;;;;;;;;;;;;;;;5001459;28;19933;-78
2022/11/15 08:30:04;;;;;;;;;;;;;;;;;;5003619;28;19913;-78
2022/11/15 08:32:30;;;;;;;;;;;;;;;;;;5004145;28;19940;-78
2022/11/15 08:34:55;;;;;;;;;;;;;;;;;;5001794;28;20364;-79
2022/11/15 08:37:21;;;;;;;;;;;;;;;;;;5001791;28;19956;-78
2022/11/15 08:39:47;;;;;;;;;;;;;;;;;;5002461;28;19940;-79
2022/11/15 08:42:14;;;;;;;;;;;;;;;;;;5006587;28;19918;-79
2022/11/15 08:44:40;;;;;;;;;;;;;;;;;;5003001;28;19936;-79
2022/11/15 08:47:06;;;;;;;;;;;;;;;;;;5002682;28;20375;-79
2022/11/15 08:49:32;;;;;;;;;;;;;;;;;;4995773;28;20376;-79
2022/11/15 08:51:58;;;;;;;;;;;;;;;;;;5015947;28;20391;-79
2022/11/15 08:54:23;;;;;;;;;;;;;;;;;;5002311;28;20375;-79
2022/11/15 08:56:49;;;;;;;;;;;;;;;;;;5008229;28;20296;-78
2022/11/15 08:59:15;;;;;;;;;;;;;;;;;;5005576;28;19959;-79
2022/11/15 09:01:41;;;;;;;;;;;;;;;;;;5006145;28;20065;-78
2022/11/15 09:04:07;;;;;;;;;;;;;;;;;;5003458;28;19936;-78
2022/11/15 09:06:33;;;;;;;;;;;;;;;;;;5004595;28;19921;-79
2022/11/15 09:08:59;;;;;;;;;;;;;;;;;;5004037;28;19921;-77
2022/11/15 09:11:26;;;;;;;;;;;;;;;;;;5005060;28;19917;-78
2022/11/15 09:13:52;;;;;;;;;;;;;;;;;;5002058;28;19921;-78
2022/11/15 09:16:17;;;;;;;;;;;;;;;;;;5005538;28;19913;-78
2022/11/15 09:18:43;;;;;;;;;;;;;;;;;;5004542;28;19940;-78
2022/11/15 09:21:09;;;;;;;;;;;;;;;;;;5005067;28;19971;-78
2022/11/15 09:23:35;;;;;;;;;;;;;;;;;;5006761;28;19917;-76
2022/11/15 09:26:02;;;;;;;;;;;;;;;;;;5007179;28;19913;-76
2022/11/15 09:28:28;;;;;;;;;;;;;;;;;;5010418;28;19917;-76
2022/11/15 09:30:54;;;;;;;;;;;;;;;;;;5011611;28;20172;-77
2022/11/15 09:33:19;;;;;;;;;;;;;;;;;;5009887;28;19913;-76
2022/11/15 09:35:45;;;;;;;;;;;;;;;;;;5009272;28;19917;-76
2022/11/15 09:38:11;;;;;;;;;;;;;;;;;;5007761;28;19948;-77
2022/11/15 09:40:37;;;;;;;;;;;;;;;;;;5009306;28;19924;-77
2022/11/15 09:43:03;;;;;;;;;;;;;;;;;;5009535;28;19917;-77
2022/11/15 09:45:29;;;;;;;;;;;;;;;;;;5010562;28;20453;-76
2022/11/15 09:47:55;;;;;;;;;;;;;;;;;;5008730;28;19975;-77
2022/11/15 09:50:21;;;;;;;;;;;;;;;;;;5006684;28;19936;-77
2022/11/15 09:52:47;;;;;;;;;;;;;;;;;;5013472;28;20023;-77
2022/11/15 09:55:21;;;;;;;;;;;;;;;;;;5009969;28;19910;-77
2022/11/15 09:57:47;;;;;;;;;;;;;;;;;;5006340;28;19920;-77
2022/11/15 10:00:13;;;;;;;;;;;;;;;;;;5007686;28;19914;-76
2022/11/15 10:02:38;;;;;;;;;;;;;;;;;;5015070;28;19917;-76
2022/11/15 10:05:04;;;;;;;;;;;;;;;;;;5012442;28;20326;-76
2022/11/15 10:07:30;;;;;;;;;;;;;;;;;;5007698;28;19999;-76
2022/11/15 10:09:57;;;;;;;;;;;;;;;;;;5009512;28;19947;-77
2022/11/15 10:12:22;;;;;;;;;;;;;;;;;;5007742;28;20323;-77
2022/11/15 10:14:48;;;;;;;;;;;;;;;;;;5007475;28;19917;-77
2022/11/15 10:17:14;;;;;;;;;;;;;;;;;;5006568;28;20386;-77
2022/11/15 10:19:40;;;;;;;;;;;;;;;;;;5007178;28;20292;-74
2022/11/15 10:22:06;;;;;;;;;;;;;;;;;;5012182;28;19971;-75
2022/11/15 10:24:32;;;;;;;;;;;;;;;;;;5008252;28;19945;-77
2022/11/15 10:26:57;;;;;;;;;;;;;;;;;;5008037;28;19928;-77
2022/11/15 10:29:23;;;;;;;;;;;;;;;;;;5008240;28;19949;-76
2022/11/15 10:31:49;;;;;;;;;;;;;;;;;;5008665;28;20012;-75
2022/11/15 10:34:15;;;;;;;;;;;;;;;;;;5010495;28;20355;-76
2022/11/15 10:36:41;;;;;;;;;;;;;;;;;;5008736;28;20354;-77
2022/11/15 10:39:07;;;;;;;;;;;;;;;;;;5006686;28;19914;-77
2022/11/15 10:41:34;;;;;;;;;;;;;;;;;;5006170;28;19960;-77
2022/11/15 10:44:00;;;;;;;;;;;;;;;;;;5008745;28;20335;-76
2022/11/15 10:46:26;;;;;;;;;;;;;;;;;;5009382;28;20004;-74
2022/11/15 10:48:52;;;;;;;;;;;;;;;;;;5005897;28;20029;-77
2022/11/15 10:51:20;;;;;;;;;;;;;;;;;;4998861;28;19955;-76
2022/11/15 10:53:46;;;;;;;;;;;;;;;;;;4997936;28;19914;-76
2022/11/15 10:56:12;;;;;;;;;;;;;;;;;;5009102;28;19909;-81
2022/11/15 10:58:37;;;;;;;;;;;;;;;;;;5001505;28;19918;-79
2022/11/15 11:01:03;;;;;;;;;;;;;;;;;;5010052;28;19932;-79
2022/11/15 11:03:29;;;;;;;;;;;;;;;;;;5006209;28;20000;-83
2022/11/15 11:05:55;;;;;;;;;;;;;;;;;;4999138;28;20374;-81
2022/11/15 11:08:21;;;;;;;;;;;;;;;;;;5004215;28;19918;-75
2022/11/15 11:10:47;;;;;;;;;;;;;;;;;;5007976;28;19913;-75
2022/11/15 11:13:13;;;;;;;;;;;;;;;;;;5008387;28;20210;-75
2022/11/15 11:15:39;;;;;;;;;;;;;;;;;;5007174;28;20399;-76
2022/11/15 11:18:05;;;;;;;;;;;;;;;;;;5005847;28;19920;-76
2022/11/15 11:20:30;;;;;;;;;;;;;;;;;;5006288;28;19914;-78
2022/11/15 11:22:56;;;;;;;;;;;;;;;;;;5010728;28;19913;-78
2022/11/15 11:25:32;;;;;;;;;;;12.50;99.90;;;;;;5003061;28;19953;-76
2022/11/15 11:27:58;;;;;;;;;;;;;;;;;;5005850;28;19921;-76
2022/11/15 11:30:24;;;;;;;;;;;;;;;;;;5006413;28;19924;-76
2022/11/15 11:32:50;;;;;;;;;;;;;;;;;;5003644;28;20314;-77
2022/11/15 11:35:15;;;;;;;;;;;;;;;;;;5007142;28;20055;-76
2022/11/15 11:37:41;;;;;;;;;;;;;;;;;;5004623;28;19959;-76
2022/11/15 11:40:07;;;;;;;;;;;;;;;;;;5000745;28;20135;-76
2022/11/15 11:42:33;;;;;;;;;;;;;;;;;;5004143;28;19917;-77
2022/11/15 11:44:59;;;;;;;;;;;;;;;;;;5016240;28;20012;-76
2022/11/15 11:47:25;;;;;;;;;;;;;;;;;;5007349;28;19909;-80
2022/11/15 11:49:51;;;;;;;;;;;;;;;;;;5005489;28;20376;-81
2022/11/15 11:52:17;;;;;;;;;;;;;;;;;;5007854;28;19914;-87
2022/11/15 11:54:43;;;;;;;;;;;;;;;;;;5006270;28;19921;-83
2022/11/15 11:57:15;;;;;;;;;;;;;;;;;;5007210;28;20000;-80
2022/11/15 11:59:43;;;;;;;;;;;;;;;;;;5020001;28;19913;-78
2022/11/15 12:02:09;;;;;;;;;;;;;;;;;;5004526;28;19942;-79
2022/11/15 12:04:35;;;;;;;;;;;;;;;;;;5004078;28;19948;-76
2022/11/15 12:07:01;;;;;;;;;;;;;;;;;;5006300;28;19910;-75
2022/11/15 12:09:27;;;;;;;;;;;;;;;;;;5004794;28;19918;-76
2022/11/15 12:11:53;;;;;;;;;;;;;;;;;;5004770;28;19920;-75
2022/11/15 12:14:18;;;;;;;;;;;;;;;;;;5008175;28;19963;-75
2022/11/15 12:16:44;;;;;;;;;;;;;;;;;;5008361;28;19910;-75
2022/11/15 12:19:10;;;;;;;;;;;;;;;;;;5000041;28;20334;-74
2022/11/15 12:21:36;;;;;;;;;;;;;;;;;;5005362;28;19936;-72
2022/11/15 12:24:04;;;;;;;;;;;;;;;;;;5007516;28;19921;-77
2022/11/15 12:26:29;;;;;;;;;;;;;;;;;;5005871;28;19983;-76
2022/11/15 12:28:57;;;;;;;;;;;;;;;;;;5008248;28;20369;-76
2022/11/15 12:31:23;;;;;;;;;;;;;;;;;;5002730;28;20348;-75
2022/11/15 12:33:49;;;;;;;;;;;;;;;;;;5003936;28;19923;-73
2022/11/15 12:36:14;;;;;;;;;;;;;;;;;;5005979;28;19919;-74
2022/11/15 12:38:40;;;;;;;;;;;;;;;;;;5003429;28;20352;-76
2022/11/15 12:41:06;;;;;;;;;;;;;;;;;;5007065;28;20283;-74
2022/11/15 12:43:32;;;;;;;;;;;;;;;;;;5005210;28;19945;-74
2022/11/15 12:45:58;;;;;;;;;;;;;;;;;;5007188;28;20001;-75
2022/11/15 12:48:24;;;;;;;;;;;;;;;;;;5006706;28;19918;-76
2022/11/15 12:50:50;;;;;;;;;;;;;;;;;;5004043;28;20720;-75
2022/11/15 12:53:15;;;;;;;;;;;;;;;;;;5005709;28;20332;-74
2022/11/15 12:55:41;;;;;;;;;;;;;;;;;;4999979;28;20308;-75
2022/11/15 12:58:07;;;;;;;;;;;;;;;;;;5003070;28;20331;-75
2022/11/15 13:00:33;;;;;;;;;;;;;;;;;;5004640;28;20624;-72
2022/11/15 13:02:59;;;;;;;;;;;;;;;;;;5007329;28;19917;-74
2022/11/15 13:05:27;;;;;;;;;;;;;;;;;;5012200;28;19917;-74
2022/11/15 13:07:52;;;;;;;;;;;;;;;;;;5013214;28;20372;-74
2022/11/15 13:10:18;;;;;;;;;;;;;;;;;;5007310;28;19922;-73
2022/11/15 13:12:44;;;;;;;;;;;;;;;;;;5008630;28;20411;-74
2022/11/15 13:15:10;;;;;;;;;;;;;;;;;;5006395;28;20400;-72
2022/11/15 13:17:37;;;;;;;;;;;;;;;;;;5013894;28;20660;-72
2022/11/15 13:20:03;;;;;;;;;;;;;;;;;;5009323;28;19967;-73
2022/11/15 13:25:13;;;;;;;;;;;;;;;;;;5014423;28;19921;-73
2022/11/15 13:27:39;;;;;;;;;;;;;;;;;;5012240;28;19921;-73
2022/11/15 13:30:05;;;;;;;;;;;;;;;;;;5009438;28;19980;-73
2022/11/15 13:32:31;;;;;;;;;;;;;;;;;;5010036;28;20012;-74
2022/11/15 13:34:57;;;;;;;;;;;;;;;;;;5006055;28;20100;-74
2022/11/15 13:37:22;;;;;;;;;;;;;;;;;;5013770;28;19914;-72
2022/11/15 13:39:48;;;;;;;;;;;;;;;;;;5008060;28;19924;-73
2022/11/15 13:42:14;;;;;;;;;;;;;;;;;;5007337;28;19976;-73
2022/11/15 13:44:40;;;;;;;;;;;;;;;;;;5002592;28;19918;-73
2022/11/15 13:47:06;;;;;;;;;;;;;;;;;;5000314;28;19920;-73
2022/11/15 13:49:32;;;;;;;;;;;;;;;;;;5006377;28;20533;-72
2022/11/15 13:51:58;;;;;;;;;;;;;;;;;;5009668;28;19914;-73
2022/11/15 13:54:23;;;;;;;;;;;;;;;;;;4997305;28;19920;-73
2022/11/15 13:56:49;;;;;;;;;;;;;;;;;;5006821;28;19914;-72
2022/11/15 13:59:15;;;;;;;;;;;;;;;;;;5010825;28;20257;-73
2022/11/15 14:01:41;;;;;;;;;;;;;;;;;;5008323;28;20372;-72
2022/11/15 14:04:08;;;;;;;;;;;;;;;;;;5010722;28;20000;-72
2022/11/15 14:06:34;;;;;;;;;;;;;;;;;;5002417;28;19940;-73
2022/11/15 14:08:59;;;;;;;;;;;;;;;;;;5009000;28;19917;-73
2022/11/15 14:11:25;;;;;;;;;;;;;;;;;;5006382;28;19937;-74
2022/11/15 14:13:51;;;;;;;;;;;;;;;;;;5011429;28;19921;-73
2022/11/15 14:16:17;;;;;;;;;;;;;;;;;;5010635;28;19963;-73
2022/11/15 14:18:43;;;;;;;;;;;;;;;;;;5008722;28;19965;-73
2022/11/15 14:21:09;;;;;;;;;;;;;;;;;;5010534;28;19975;-73
2022/11/15 14:23:34;;;;;;;;;;;;;;;;;;5004292;28;19920;-73
2022/11/15 14:26:00;;;;;;;;;;;;;;;;;;5009729;28;19918;-73
2022/11/15 14:28:26;;;;;;;;;;;;;;;;;;5010486;28;20468;-72
2022/11/15 14:30:52;;;;;;;;;;;;;;;;;;5001334;28;20007;-73
2022/11/15 14:33:18;;;;;;;;;;;;;;;;;;5012815;28;19913;-74
2022/11/15 14:35:44;;;;;;;;;;;;;;;;;;5010572;28;19921;-73
2022/11/15 14:38:10;;;;;;;;;;;;;;;;;;4998932;28;19914;-73
2022/11/15 14:40:35;;;;;;;;;;;;;;;;;;5005931;28;19921;-73
2022/11/15 14:43:01;;;;;;;;;;;;;;;;;;5008172;28;19969;-74
2022/11/15 14:45:27;;;;;;;;;;;;;;;;;;5010115;28;19949;-76
2022/11/15 14:47:53;;;;;;;;;;;;;;;;;;5008602;28;19922;-76
2022/11/15 14:50:19;;;;;;;;;;;;;;;;;;5006190;28;19917;-73
2022/11/15 14:52:45;;;;;;;;;;;;;;;;;;4998564;28;20074;-73
2022/11/15 14:55:11;;;;;;;;;;;;;;;;;;5002964;28;19924;-73
2022/11/15 14:57:37;;;;;;;;;;;;;;;;;;5002527;28;19914;-71
2022/11/15 15:00:02;;;;;;;;;;;;;;;;;;5005579;28;19913;-74
2022/11/15 15:02:28;;;;;;;;;;;;;;;;;;5002629;28;20000;-73
2022/11/15 15:04:54;;;;;;;;;;;;;;;;;;5005391;28;19920;-75
2022/11/15 15:07:20;;;;;;;;;;;;;;;;;;5008270;28;20391;-75
2022/11/15 15:09:46;;;;;;;;;;;;;;;;;;5009211;28;19917;-76
2022/11/15 15:12:12;;;;;;;;;;;;;;;;;;5007296;28;19914;-76
2022/11/15 15:14:38;;;;;;;;;;;;;;;;;;5005211;28;19956;-77
2022/11/15 15:17:04;;;;;;;;;;;;;;;;;;5007311;28;20000;-77
2022/11/15 15:19:30;;;;;;;;;;;;;;;;;;5008630;28;19972;-78
2022/11/15 15:21:56;;;;;;;;;;;;;;;;;;4999848;28;20324;-73
2022/11/15 15:24:22;;;;;;;;;;;;;;;;;;5005040;28;19966;-77
2022/11/15 15:26:48;;;;;;;;;;;;;;;;;;5008257;28;20379;-77
2022/11/15 15:29:13;;;;;;;;;;;;;;;;;;5006105;28;19971;-77
2022/11/15 15:31:42;;;;;;;;;;;;;;;;;;5005740;28;19973;-78
2022/11/15 15:34:10;;;;;;;;;;;;;;;;;;4998919;28;21527;-79
2022/11/15 15:36:36;;;;;;;;;;;;;;;;;;5005891;28;20364;-77
2022/11/15 15:39:02;;;;;;;;;;;;;;;;;;5007737;28;20595;-78
2022/11/15 15:41:28;;;;;;;;;;;;;;;;;;5008350;28;19914;-77
2022/11/15 15:43:54;;;;;;;;;;;;;;;;;;5002930;28;20356;-76
2022/11/15 15:46:19;;;;;;;;;;;;;;;;;;5003041;28;19913;-77
2022/11/15 15:48:45;;;;;;;;;;;;;;;;;;5001990;28;20261;-75
2022/11/15 15:51:11;;;;;;;;;;;;;;;;;;5009105;28;19920;-93
2022/11/15 15:53:37;;;;;;;;;;;;;;;;;;5004844;28;19920;-74
2022/11/15 15:56:03;;;;;;;;;;;;;;;;;;5005024;28;20502;-74
2022/11/15 15:58:29;;;;;;;;;;;;;;;;;;5000042;28;20501;-74
2022/11/15 16:00:54;;;;;;;;;;;;;;;;;;5002684;28;19924;-77
2022/11/15 16:03:20;;;;;;;;;;;;;;;;;;5007096;28;19913;-76
2022/11/15 16:05:46;;;;;;;;;;;;;;;;;;5004406;28;19917;-76
2022/11/15 16:08:12;;;;;;;;;;;;;;;;;;5004138;28;20020;-80
2022/11/15 16:10:38;;;;;;;;;;;;;;;;;;5002491;28;20368;-76
2022/11/15 16:13:04;;;;;;;;;;;;;;;;;;5003486;28;19917;-79
2022/11/15 16:15:30;;;;;;;;;;;;;;;;;;5004657;28;20316;-82
2022/11/15 16:17:56;;;;;;;;;;;;;;;;;;5005945;28;19917;-76
2022/11/15 16:20:21;;;;;;;;;;;;;;;;;;5010031;28;19932;-75
2022/11/15 16:22:47;;;;;;;;;;;;;;;;;;5004482;28;19913;-77
2022/11/15 16:25:13;;;;;;;;;;;;;;;;;;5003654;28;19926;-75
2022/11/15 16:27:44;;;;;;;;;;;;;;;;;;5007532;28;19917;-76
2022/11/15 16:30:10;;;;;;;;;;;;;;;;;;5002755;28;19940;-75
2022/11/15 16:32:36;;;;;;;;;;;;;;;;;;5002266;28;19921;-75
2022/11/15 16:35:02;;;;;;;;;;;;;;;;;;4998246;28;20218;-75
2022/11/15 16:37:27;;;;;;;;;;;;;;;;;;4999476;28;19924;-76
2022/11/15 16:39:53;;;;;;;;;;;;;;;;;;5002919;28;19918;-76
2022/11/15 16:42:19;;;;;;;;;;;;;;;;;;5005724;28;19914;-73
2022/11/15 16:44:45;;;;;;;;;;;;;;;;;;5005400;28;19928;-77
2022/11/15 16:47:11;;;;;;;;;;;;;;;;;;5006116;28;19923;-75
2022/11/15 16:49:37;;;;;;;;;;;;;;;;;;5010663;28;19917;-75
2022/11/15 16:52:02;;;;;;;;;;;;;;;;;;5006909;28;19919;-76